sensor_id;sensor_type;location;lat;lon;timestamp;pressure;altitude;pressure_sealevel;temperature;humidity
78685;BME280;68002;52.310;6.990;2023-02-26T00:02:16;101472.81;;;1.22;71.78
78685;BME280;68002;52.310;6.990;2023-02-26T00:04:41;101481.66;;;1.21;72.47
78685;BME280;68002;52.310;6.990;2023-02-26T00:07:07;101479.03;;;1.21;72.54
78685;BME280;68002;52.310;6.990;2023-02-26T00:09:32;101479.81;;;1.23;73.28
78685;BME280;68002;52.310;6.990;2023-02-26T00:11:59;101482.63;;;1.18;73.13
78685;BME280;68002;52.310;6.990;2023-02-26T00:14:24;101483.94;;;1.08;73.18
78685;BME280;68002;52.310;6.990;2023-02-26T00:19:39;101496.50;;;1.01;73.49
78685;BME280;68002;52.310;6.990;2023-02-26T00:22:05;101495.22;;;0.90;73.38
78685;BME280;68002;52.310;6.990;2023-02-26T00:24:31;101494.56;;;0.85;73.46
78685;BME280;68002;52.310;6.990;2023-02-26T00:26:56;101494.03;;;0.77;73.76
78685;BME280;68002;52.310;6.990;2023-02-26T00:29:22;101495.13;;;0.71;73.40
78685;BME280;68002;52.310;6.990;2023-02-26T00:31:48;101504.16;;;0.64;73.88
78685;BME280;68002;52.310;6.990;2023-02-26T00:34:13;101507.06;;;0.58;74.27
78685;BME280;68002;52.310;6.990;2023-02-26T00:41:44;101517.28;;;0.43;74.14
78685;BME280;68002;52.310;6.990;2023-02-26T00:44:09;101513.13;;;0.37;74.21
78685;BME280;68002;52.310;6.990;2023-02-26T00:49:15;101508.34;;;0.25;75.08
78685;BME280;68002;52.310;6.990;2023-02-26T00:51:52;101521.59;;;0.22;75.54
78685;BME280;68002;52.310;6.990;2023-02-26T00:54:24;101534.94;;;0.18;74.52
78685;BME280;68002;52.310;6.990;2023-02-26T00:56:52;101532.41;;;0.15;74.69
78685;BME280;68002;52.310;6.990;2023-02-26T00:59:18;101539.50;;;0.13;75.01
78685;BME280;68002;52.310;6.990;2023-02-26T01:01:44;101526.44;;;0.10;74.88
78685;BME280;68002;52.310;6.990;2023-02-26T01:04:11;101538.56;;;0.14;75.24
78685;BME280;68002;52.310;6.990;2023-02-26T01:06:42;101528.41;;;0.05;75.04
78685;BME280;68002;52.310;6.990;2023-02-26T01:11:49;101539.25;;;-0.05;75.91
78685;BME280;68002;52.310;6.990;2023-02-26T01:14:14;101536.63;;;-0.05;75.75
78685;BME280;68002;52.310;6.990;2023-02-26T01:22:32;101542.28;;;-0.15;75.07
78685;BME280;68002;52.310;6.990;2023-02-26T01:25:09;101548.47;;;-0.18;74.71
78685;BME280;68002;52.310;6.990;2023-02-26T01:27:35;101552.03;;;-0.19;74.26
78685;BME280;68002;52.310;6.990;2023-02-26T01:30:01;101539.16;;;-0.26;74.45
78685;BME280;68002;52.310;6.990;2023-02-26T01:37:50;101559.53;;;-0.33;74.17
78685;BME280;68002;52.310;6.990;2023-02-26T01:40:28;101544.69;;;-0.34;73.96
78685;BME280;68002;52.310;6.990;2023-02-26T01:43:05;101550.84;;;-0.35;73.92
78685;BME280;68002;52.310;6.990;2023-02-26T01:45:34;101558.84;;;-0.38;73.92
78685;BME280;68002;52.310;6.990;2023-02-26T01:48:06;101551.06;;;-0.41;74.14
78685;BME280;68002;52.310;6.990;2023-02-26T01:50:34;101559.22;;;-0.48;74.10
78685;BME280;68002;52.310;6.990;2023-02-26T01:53:15;101561.09;;;-0.52;73.47
78685;BME280;68002;52.310;6.990;2023-02-26T01:55:42;101562.19;;;-0.59;74.40
78685;BME280;68002;52.310;6.990;2023-02-26T01:58:08;101569.97;;;-0.56;74.54
78685;BME280;68002;52.310;6.990;2023-02-26T02:00:34;101563.09;;;-0.60;73.50
78685;BME280;68002;52.310;6.990;2023-02-26T02:02:59;101561.53;;;-0.65;73.69
78685;BME280;68002;52.310;6.990;2023-02-26T02:05:33;101567.75;;;-0.68;74.56
78685;BME280;68002;52.310;6.990;2023-02-26T02:08:03;101578.16;;;-0.65;74.44
78685;BME280;68002;52.310;6.990;2023-02-26T02:10:28;101572.22;;;-0.70;74.74
78685;BME280;68002;52.310;6.990;2023-02-26T02:13:11;101584.59;;;-0.75;74.66
78685;BME280;68002;52.310;6.990;2023-02-26T02:15:45;101587.03;;;-0.69;73.38
78685;BME280;68002;52.310;6.990;2023-02-26T02:18:20;101592.53;;;-0.76;73.62
78685;BME280;68002;52.310;6.990;2023-02-26T02:23:36;101598.78;;;-0.80;73.43
78685;BME280;68002;52.310;6.990;2023-02-26T02:31:51;101604.09;;;-0.82;73.33
78685;BME280;68002;52.310;6.990;2023-02-26T02:34:25;101608.59;;;-0.85;73.48
78685;BME280;68002;52.310;6.990;2023-02-26T02:37:00;101614.75;;;-0.86;73.35
78685;BME280;68002;52.310;6.990;2023-02-26T02:39:57;101617.69;;;-0.97;72.92
78685;BME280;68002;52.310;6.990;2023-02-26T02:42:31;101621.34;;;-1.01;73.12
78685;BME280;68002;52.310;6.990;2023-02-26T02:45:07;101621.38;;;-1.03;73.32
78685;BME280;68002;52.310;6.990;2023-02-26T02:47:35;101624.91;;;-1.04;72.85
78685;BME280;68002;52.310;6.990;2023-02-26T02:50:11;101631.88;;;-1.03;72.37
78685;BME280;68002;52.310;6.990;2023-02-26T02:52:42;101636.41;;;-1.08;72.24
78685;BME280;68002;52.310;6.990;2023-02-26T02:55:15;101630.41;;;-1.11;72.29
78685;BME280;68002;52.310;6.990;2023-02-26T02:57:47;101629.63;;;-1.15;72.89
78685;BME280;68002;52.310;6.990;2023-02-26T03:00:15;101637.63;;;-1.18;72.31
78685;BME280;68002;52.310;6.990;2023-02-26T03:02:56;101630.78;;;-1.23;73.41
78685;BME280;68002;52.310;6.990;2023-02-26T03:05:24;101641.88;;;-1.15;71.80
78685;BME280;68002;52.310;6.990;2023-02-26T03:07:55;101636.56;;;-1.12;71.83
78685;BME280;68002;52.310;6.990;2023-02-26T03:10:22;101642.88;;;-1.18;72.24
78685;BME280;68002;52.310;6.990;2023-02-26T03:12:47;101651.41;;;-1.11;72.80
78685;BME280;68002;52.310;6.990;2023-02-26T03:15:13;101645.25;;;-1.10;71.83
78685;BME280;68002;52.310;6.990;2023-02-26T03:17:54;101646.16;;;-1.11;72.66
78685;BME280;68002;52.310;6.990;2023-02-26T03:20:28;101660.19;;;-1.12;71.90
78685;BME280;68002;52.310;6.990;2023-02-26T03:23:12;101665.41;;;-1.11;71.74
78685;BME280;68002;52.310;6.990;2023-02-26T03:25:49;101660.31;;;-1.17;71.86
78685;BME280;68002;52.310;6.990;2023-02-26T03:31:16;101657.06;;;-1.25;71.91
78685;BME280;68002;52.310;6.990;2023-02-26T03:33:56;101665.16;;;-1.32;71.45
78685;BME280;68002;52.310;6.990;2023-02-26T03:38:59;101674.03;;;-1.36;72.12
78685;BME280;68002;52.310;6.990;2023-02-26T03:41:35;101674.91;;;-1.37;72.22
78685;BME280;68002;52.310;6.990;2023-02-26T03:44:07;101685.38;;;-1.36;71.43
78685;BME280;68002;52.310;6.990;2023-02-26T03:46:40;101688.00;;;-1.36;71.49
78685;BME280;68002;52.310;6.990;2023-02-26T03:49:17;101689.59;;;-1.30;71.67
78685;BME280;68002;52.310;6.990;2023-02-26T03:51:45;101692.41;;;-1.36;72.13
78685;BME280;68002;52.310;6.990;2023-02-26T03:54:24;101696.81;;;-1.38;72.30
78685;BME280;68002;52.310;6.990;2023-02-26T03:56:51;101702.28;;;-1.46;70.95
78685;BME280;68002;52.310;6.990;2023-02-26T03:59:17;101702.31;;;-1.47;71.46
78685;BME280;68002;52.310;6.990;2023-02-26T04:01:48;101712.00;;;-1.49;72.04
78685;BME280;68002;52.310;6.990;2023-02-26T04:04:40;101720.69;;;-1.47;72.20
78685;BME280;68002;52.310;6.990;2023-02-26T04:07:06;101714.78;;;-1.55;71.29
78685;BME280;68002;52.310;6.990;2023-02-26T04:09:31;101711.38;;;-1.59;72.62
78685;BME280;68002;52.310;6.990;2023-02-26T04:11:57;101726.25;;;-1.59;72.14
78685;BME280;68002;52.310;6.990;2023-02-26T04:14:22;101720.13;;;-1.58;71.37
78685;BME280;68002;52.310;6.990;2023-02-26T04:16:47;101725.47;;;-1.61;72.35
78685;BME280;68002;52.310;6.990;2023-02-26T04:19:13;101730.81;;;-1.66;71.92
78685;BME280;68002;52.310;6.990;2023-02-26T04:21:38;101735.16;;;-1.65;71.68
78685;BME280;68002;52.310;6.990;2023-02-26T04:24:03;101741.16;;;-1.60;72.52
78685;BME280;68002;52.310;6.990;2023-02-26T04:26:29;101746.38;;;-1.60;71.61
78685;BME280;68002;52.310;6.990;2023-02-26T04:28:54;101741.06;;;-1.57;71.54
78685;BME280;68002;52.310;6.990;2023-02-26T04:31:19;101755.09;;;-1.58;71.63
78685;BME280;68002;52.310;6.990;2023-02-26T04:33:44;101750.72;;;-1.59;70.99
78685;BME280;68002;52.310;6.990;2023-02-26T04:36:09;101742.84;;;-1.59;70.75
78685;BME280;68002;52.310;6.990;2023-02-26T04:38:35;101745.44;;;-1.57;70.77
78685;BME280;68002;52.310;6.990;2023-02-26T04:41:00;101760.16;;;-1.52;71.22
78685;BME280;68002;52.310;6.990;2023-02-26T04:43:25;101753.19;;;-1.53;71.83
78685;BME280;68002;52.310;6.990;2023-02-26T04:45:50;101751.59;;;-1.58;71.65
78685;BME280;68002;52.310;6.990;2023-02-26T04:48:16;101759.31;;;-1.54;70.87
78685;BME280;68002;52.310;6.990;2023-02-26T04:50:42;101760.34;;;-1.59;72.13
78685;BME280;68002;52.310;6.990;2023-02-26T04:53:07;101779.56;;;-1.59;70.77
78685;BME280;68002;52.310;6.990;2023-02-26T04:55:34;101777.78;;;-1.57;71.29
78685;BME280;68002;52.310;6.990;2023-02-26T04:58:00;101779.81;;;-1.68;71.47
78685;BME280;68002;52.310;6.990;2023-02-26T05:00:25;101787.72;;;-1.69;71.71
78685;BME280;68002;52.310;6.990;2023-02-26T05:02:50;101787.97;;;-1.78;71.68
78685;BME280;68002;52.310;6.990;2023-02-26T05:05:16;101800.16;;;-1.76;72.38
78685;BME280;68002;52.310;6.990;2023-02-26T05:07:41;101801.91;;;-1.76;72.86
78685;BME280;68002;52.310;6.990;2023-02-26T05:10:07;101803.69;;;-1.78;71.36
78685;BME280;68002;52.310;6.990;2023-02-26T05:12:33;101808.16;;;-1.82;73.05
78685;BME280;68002;52.310;6.990;2023-02-26T05:14:58;101809.03;;;-1.83;73.11
78685;BME280;68002;52.310;6.990;2023-02-26T05:17:23;101811.66;;;-1.81;73.07
78685;BME280;68002;52.310;6.990;2023-02-26T05:19:48;101808.97;;;-1.80;72.92
78685;BME280;68002;52.310;6.990;2023-02-26T05:22:14;101818.69;;;-1.85;72.09
78685;BME280;68002;52.310;6.990;2023-02-26T05:24:39;101818.78;;;-1.88;72.24
78685;BME280;68002;52.310;6.990;2023-02-26T05:27:05;101828.34;;;-1.85;72.92
78685;BME280;68002;52.310;6.990;2023-02-26T05:29:30;101824.94;;;-1.89;72.53
78685;BME280;68002;52.310;6.990;2023-02-26T05:31:55;101823.94;;;-1.85;73.17
78685;BME280;68002;52.310;6.990;2023-02-26T05:34:20;101839.72;;;-1.86;72.00
78685;BME280;68002;52.310;6.990;2023-02-26T05:36:46;101846.69;;;-1.85;72.75
78685;BME280;68002;52.310;6.990;2023-02-26T05:39:11;101845.78;;;-1.84;72.60
78685;BME280;68002;52.310;6.990;2023-02-26T05:41:36;101845.78;;;-1.84;73.61
78685;BME280;68002;52.310;6.990;2023-02-26T05:44:01;101847.63;;;-1.88;73.87
78685;BME280;68002;52.310;6.990;2023-02-26T05:46:27;101860.72;;;-1.88;73.63
78685;BME280;68002;52.310;6.990;2023-02-26T05:48:52;101860.81;;;-1.91;73.53
78685;BME280;68002;52.310;6.990;2023-02-26T05:51:17;101860.06;;;-1.96;72.68
78685;BME280;68002;52.310;6.990;2023-02-26T05:53:44;101856.56;;;-1.96;73.93
78685;BME280;68002;52.310;6.990;2023-02-26T05:56:09;101867.94;;;-1.97;74.63
78685;BME280;68002;52.310;6.990;2023-02-26T05:58:34;101863.69;;;-2.01;73.91
78685;BME280;68002;52.310;6.990;2023-02-26T06:00:59;101876.78;;;-2.01;73.10
78685;BME280;68002;52.310;6.990;2023-02-26T06:03:25;101886.34;;;-2.00;74.11
78685;BME280;68002;52.310;6.990;2023-02-26T06:05:50;101888.19;;;-2.04;74.04
78685;BME280;68002;52.310;6.990;2023-02-26T06:08:15;101887.22;;;-2.00;73.87
78685;BME280;68002;52.310;6.990;2023-02-26T06:10:41;101889.81;;;-1.98;73.42
78685;BME280;68002;52.310;6.990;2023-02-26T06:13:06;101888.91;;;-1.96;73.85
78685;BME280;68002;52.310;6.990;2023-02-26T06:15:31;101900.97;;;-1.89;73.54
78685;BME280;68002;52.310;6.990;2023-02-26T06:17:57;101913.19;;;-1.89;74.74
78685;BME280;68002;52.310;6.990;2023-02-26T06:20:22;101914.03;;;-1.87;74.89
78685;BME280;68002;52.310;6.990;2023-02-26T06:22:47;101916.59;;;-1.86;73.78
78685;BME280;68002;52.310;6.990;2023-02-26T06:25:12;101922.72;;;-1.85;73.71
78685;BME280;68002;52.310;6.990;2023-02-26T06:27:37;101923.69;;;-1.89;73.64
78685;BME280;68002;52.310;6.990;2023-02-26T06:30:03;101928.06;;;-1.90;74.77
78685;BME280;68002;52.310;6.990;2023-02-26T06:32:29;101930.63;;;-1.88;74.22
78685;BME280;68002;52.310;6.990;2023-02-26T06:34:54;101937.66;;;-1.89;75.41
78685;BME280;68002;52.310;6.990;2023-02-26T06:37:19;101933.25;;;-1.88;74.63
78685;BME280;68002;52.310;6.990;2023-02-26T06:39:44;101939.34;;;-1.86;73.84
78685;BME280;68002;52.310;6.990;2023-02-26T06:42:10;101949.78;;;-1.83;74.98
78685;BME280;68002;52.310;6.990;2023-02-26T06:44:35;101951.47;;;-1.82;74.54
78685;BME280;68002;52.310;6.990;2023-02-26T06:47:00;101935.75;;;-1.82;74.31
78685;BME280;68002;52.310;6.990;2023-02-26T06:49:25;101950.53;;;-1.78;74.13
78685;BME280;68002;52.310;6.990;2023-02-26T06:51:50;101954.91;;;-1.79;75.10
78685;BME280;68002;52.310;6.990;2023-02-26T06:54:16;101970.59;;;-1.76;74.93
78685;BME280;68002;52.310;6.990;2023-02-26T06:56:41;101966.19;;;-1.75;75.21
78685;BME280;68002;52.310;6.990;2023-02-26T06:59:06;101967.09;;;-1.76;75.07
78685;BME280;68002;52.310;6.990;2023-02-26T07:01:32;101960.84;;;-1.71;74.68
78685;BME280;68002;52.310;6.990;2023-02-26T07:03:57;101975.66;;;-1.70;74.42
78685;BME280;68002;52.310;6.990;2023-02-26T07:06:22;101980.75;;;-1.62;73.65
78685;BME280;68002;52.310;6.990;2023-02-26T07:08:47;101974.53;;;-1.58;75.03
78685;BME280;68002;52.310;6.990;2023-02-26T07:11:13;101969.16;;;-1.54;74.81
78685;BME280;68002;52.310;6.990;2023-02-26T07:13:38;101982.13;;;-1.46;74.16
78685;BME280;68002;52.310;6.990;2023-02-26T07:16:04;101981.94;;;-1.39;73.96
78685;BME280;68002;52.310;6.990;2023-02-26T07:18:29;101982.72;;;-1.35;74.62
78685;BME280;68002;52.310;6.990;2023-02-26T07:20:54;101987.94;;;-1.32;73.75
78685;BME280;68002;52.310;6.990;2023-02-26T07:23:20;101998.41;;;-1.32;74.61
78685;BME280;68002;52.310;6.990;2023-02-26T07:25:48;101992.94;;;-1.23;74.82
78685;BME280;68002;52.310;6.990;2023-02-26T07:28:13;102006.72;;;-1.15;73.50
78685;BME280;68002;52.310;6.990;2023-02-26T07:30:38;102007.50;;;-1.10;73.73
78685;BME280;68002;52.310;6.990;2023-02-26T07:33:03;102009.13;;;-1.05;73.85
78685;BME280;68002;52.310;6.990;2023-02-26T07:35:28;102008.22;;;-1.04;73.86
78685;BME280;68002;52.310;6.990;2023-02-26T07:37:54;102010.78;;;-1.02;73.24
78685;BME280;68002;52.310;6.990;2023-02-26T07:40:19;102011.47;;;-0.94;73.74
78685;BME280;68002;52.310;6.990;2023-02-26T07:42:44;102016.66;;;-0.91;73.27
78685;BME280;68002;52.310;6.990;2023-02-26T07:45:10;102013.97;;;-0.89;73.70
78685;BME280;68002;52.310;6.990;2023-02-26T07:47:36;101995.63;;;-0.91;73.35
78685;BME280;68002;52.310;6.990;2023-02-26T07:50:01;102012.91;;;-0.81;73.06
78685;BME280;68002;52.310;6.990;2023-02-26T07:52:27;102020.59;;;-0.73;73.77
78685;BME280;68002;52.310;6.990;2023-02-26T07:54:52;102022.16;;;-0.66;73.02
78685;BME280;68002;52.310;6.990;2023-02-26T07:57:17;102019.34;;;-0.60;72.99
78685;BME280;68002;52.310;6.990;2023-02-26T07:59:43;102020.94;;;-0.55;72.40
78685;BME280;68002;52.310;6.990;2023-02-26T08:02:09;102030.38;;;-0.46;72.55
78685;BME280;68002;52.310;6.990;2023-02-26T08:04:35;102034.66;;;-0.42;72.90
78685;BME280;68002;52.310;6.990;2023-02-26T08:07:00;102041.50;;;-0.37;73.04
78685;BME280;68002;52.310;6.990;2023-02-26T08:09:26;102046.63;;;-0.32;72.06
78685;BME280;68002;52.310;6.990;2023-02-26T08:11:51;102048.97;;;-0.22;72.06
78685;BME280;68002;52.310;6.990;2023-02-26T08:14:16;102055.75;;;-0.13;71.99
78685;BME280;68002;52.310;6.990;2023-02-26T08:16:41;102064.47;;;-0.11;71.49
78685;BME280;68002;52.310;6.990;2023-02-26T08:19:07;102061.59;;;-0.02;71.12
78685;BME280;68002;52.310;6.990;2023-02-26T08:21:32;102065.63;;;0.10;70.57
78685;BME280;68002;52.310;6.990;2023-02-26T08:23:57;102065.47;;;0.16;70.99
78685;BME280;68002;52.310;6.990;2023-02-26T08:26:23;102055.69;;;0.19;nan
78685;BME280;68002;52.310;6.990;2023-02-26T08:28:48;102067.72;;;0.28;69.42
78685;BME280;68002;52.310;6.990;2023-02-26T08:31:14;102074.47;;;0.38;69.37
78685;BME280;68002;52.310;6.990;2023-02-26T08:33:39;102076.78;;;0.48;69.26
78685;BME280;68002;52.310;6.990;2023-02-26T08:36:05;102075.56;;;0.60;68.70
78685;BME280;68002;52.310;6.990;2023-02-26T08:38:31;102078.03;;;0.64;67.61
78685;BME280;68002;52.310;6.990;2023-02-26T08:40:56;102083.06;;;0.72;67.48
78685;BME280;68002;52.310;6.990;2023-02-26T08:43:21;102089.75;;;0.83;67.26
78685;BME280;68002;52.310;6.990;2023-02-26T08:45:47;102090.22;;;0.96;66.83
78685;BME280;68002;52.310;6.990;2023-02-26T08:48:12;102101.44;;;1.02;66.53
78685;BME280;68002;52.310;6.990;2023-02-26T08:50:38;102097.59;;;1.13;65.78
78685;BME280;68002;52.310;6.990;2023-02-26T08:53:03;102094.88;;;1.42;69.13
78685;BME280;68002;52.310;6.990;2023-02-26T08:55:28;102108.78;;;1.97;70.48
78685;BME280;68002;52.310;6.990;2023-02-26T08:57:53;102113.31;;;2.65;68.19
78685;BME280;68002;52.310;6.990;2023-02-26T09:00:19;102119.16;;;3.39;70.18
78685;BME280;68002;52.310;6.990;2023-02-26T09:02:45;102104.53;;;4.13;66.42
78685;BME280;68002;52.310;6.990;2023-02-26T09:05:10;102110.31;;;4.79;64.02
78685;BME280;68002;52.310;6.990;2023-02-26T09:07:35;102106.81;;;5.33;60.60
78685;BME280;68002;52.310;6.990;2023-02-26T09:10:00;102118.28;;;5.86;57.95
78685;BME280;68002;52.310;6.990;2023-02-26T09:12:26;102119.69;;;6.10;57.17
78685;BME280;68002;52.310;6.990;2023-02-26T09:14:51;102116.75;;;6.49;52.38
78685;BME280;68002;52.310;6.990;2023-02-26T09:17:16;102120.56;;;6.76;51.48
78685;BME280;68002;52.310;6.990;2023-02-26T09:19:42;102129.78;;;7.02;46.24
78685;BME280;68002;52.310;6.990;2023-02-26T09:22:07;102126.34;;;7.31;48.67
78685;BME280;68002;52.310;6.990;2023-02-26T09:24:33;102128.66;;;7.22;45.50
78685;BME280;68002;52.310;6.990;2023-02-26T09:26:58;102135.69;;;7.38;47.15
78685;BME280;68002;52.310;6.990;2023-02-26T09:29:23;102129.50;;;7.69;48.11
78685;BME280;68002;52.310;6.990;2023-02-26T09:31:48;102119.69;;;7.99;45.64
78685;BME280;68002;52.310;6.990;2023-02-26T09:34:13;102124.00;;;8.15;43.78
78685;BME280;68002;52.310;6.990;2023-02-26T09:36:39;102125.69;;;8.46;45.27
78685;BME280;68002;52.310;6.990;2023-02-26T09:39:05;102129.69;;;8.39;40.74
78685;BME280;68002;52.310;6.990;2023-02-26T09:41:37;102128.34;;;8.46;41.61
78685;BME280;68002;52.310;6.990;2023-02-26T09:49:41;102133.00;;;9.13;39.30
78685;BME280;68002;52.310;6.990;2023-02-26T09:54:58;102136.00;;;9.35;36.26
78685;BME280;68002;52.310;6.990;2023-02-26T09:57:31;102137.91;;;9.60;38.65
78685;BME280;68002;52.310;6.990;2023-02-26T09:59:58;102147.72;;;9.86;37.08
78685;BME280;68002;52.310;6.990;2023-02-26T10:02:41;102145.66;;;9.77;34.24
78685;BME280;68002;52.310;6.990;2023-02-26T10:05:24;102146.78;;;9.60;31.76
78685;BME280;68002;52.310;6.990;2023-02-26T10:08:19;102148.97;;;9.41;33.59
78685;BME280;68002;52.310;6.990;2023-02-26T10:11:06;102148.19;;;9.92;33.53
78685;BME280;68002;52.310;6.990;2023-02-26T10:13:45;102145.50;;;10.32;31.78
78685;BME280;68002;52.310;6.990;2023-02-26T10:16:19;102150.72;;;10.21;31.07
78685;BME280;68002;52.310;6.990;2023-02-26T10:19:00;102163.31;;;9.79;32.25
78685;BME280;68002;52.310;6.990;2023-02-26T10:21:38;102162.03;;;9.72;33.51
78685;BME280;68002;52.310;6.990;2023-02-26T10:24:13;102151.25;;;9.33;33.50
78685;BME280;68002;52.310;6.990;2023-02-26T10:26:49;102155.44;;;9.64;32.98
78685;BME280;68002;52.310;6.990;2023-02-26T10:32:28;102172.69;;;10.38;32.41
78685;BME280;68002;52.310;6.990;2023-02-26T10:35:02;102168.09;;;10.01;34.06
78685;BME280;68002;52.310;6.990;2023-02-26T10:37:33;102175.38;;;10.38;32.72
78685;BME280;68002;52.310;6.990;2023-02-26T10:42:40;102173.75;;;10.86;28.92
78685;BME280;68002;52.310;6.990;2023-02-26T10:45:27;102185.94;;;10.90;31.49
78685;BME280;68002;52.310;6.990;2023-02-26T10:48:07;102176.03;;;11.28;30.43
78685;BME280;68002;52.310;6.990;2023-02-26T10:50:34;102200.06;;;10.29;31.24
78685;BME280;68002;52.310;6.990;2023-02-26T10:53:00;102193.53;;;9.12;32.70
78685;BME280;68002;52.310;6.990;2023-02-26T10:58:35;102184.47;;;9.01;35.81
78685;BME280;68002;52.310;6.990;2023-02-26T11:01:00;102193.00;;;9.75;33.51
78685;BME280;68002;52.310;6.990;2023-02-26T11:03:38;102188.06;;;10.35;32.12
78685;BME280;68002;52.310;6.990;2023-02-26T11:06:05;102175.47;;;10.87;32.47
78685;BME280;68002;52.310;6.990;2023-02-26T11:08:34;102176.03;;;11.28;30.39
78685;BME280;68002;52.310;6.990;2023-02-26T11:11:02;102188.56;;;11.64;31.17
78685;BME280;68002;52.310;6.990;2023-02-26T11:13:30;102184.00;;;12.24;31.16
78685;BME280;68002;52.310;6.990;2023-02-26T11:16:00;102186.03;;;12.44;29.71
78685;BME280;68002;52.310;6.990;2023-02-26T11:18:29;102179.84;;;12.66;29.06
78685;BME280;68002;52.310;6.990;2023-02-26T11:20:57;102197.91;;;12.86;29.42
78685;BME280;68002;52.310;6.990;2023-02-26T11:23:26;102180.63;;;13.12;29.32
78685;BME280;68002;52.310;6.990;2023-02-26T11:25:53;102185.84;;;12.91;28.22
78685;BME280;68002;52.310;6.990;2023-02-26T11:28:30;102197.50;;;13.03;26.70
78685;BME280;68002;52.310;6.990;2023-02-26T11:30:55;102184.63;;;12.95;27.25
78685;BME280;68002;52.310;6.990;2023-02-26T11:33:35;102190.59;;;12.88;28.29
78685;BME280;68002;52.310;6.990;2023-02-26T11:36:02;102185.94;;;12.68;27.98
78685;BME280;68002;52.310;6.990;2023-02-26T11:38:29;102170.13;;;12.98;27.48
78685;BME280;68002;52.310;6.990;2023-02-26T11:40:57;102176.91;;;13.02;28.28
78685;BME280;68002;52.310;6.990;2023-02-26T11:43:24;102183.03;;;12.71;27.95
78685;BME280;68002;52.310;6.990;2023-02-26T11:45:57;102178.19;;;11.59;28.66
78685;BME280;68002;52.310;6.990;2023-02-26T11:48:36;102180.31;;;10.69;28.71
78685;BME280;68002;52.310;6.990;2023-02-26T11:51:04;102186.06;;;10.38;31.57
78685;BME280;68002;52.310;6.990;2023-02-26T11:56:07;102178.34;;;10.46;31.70
78685;BME280;68002;52.310;6.990;2023-02-26T11:58:35;102182.94;;;10.57;31.31
78685;BME280;68002;52.310;6.990;2023-02-26T12:01:02;102167.03;;;10.80;30.57
78685;BME280;68002;52.310;6.990;2023-02-26T12:03:32;102183.53;;;11.23;29.93
78685;BME280;68002;52.310;6.990;2023-02-26T12:06:00;102174.66;;;11.71;30.21
78685;BME280;68002;52.310;6.990;2023-02-26T12:08:33;102186.59;;;12.02;29.92
78685;BME280;68002;52.310;6.990;2023-02-26T12:11:38;102183.59;;;12.06;29.13
78685;BME280;68002;52.310;6.990;2023-02-26T12:31:28;102162.78;;;12.78;26.93
78685;BME280;68002;52.310;6.990;2023-02-26T12:37:27;102169.22;;;13.53;27.03
78685;BME280;68002;52.310;6.990;2023-02-26T12:40:21;102163.28;;;13.70;25.83
78685;BME280;68002;52.310;6.990;2023-02-26T12:43:00;102173.75;;;13.41;25.56
78685;BME280;68002;52.310;6.990;2023-02-26T12:45:38;102169.47;;;13.50;26.98
78685;BME280;68002;52.310;6.990;2023-02-26T12:50:52;102163.91;;;14.05;26.21
78685;BME280;68002;52.310;6.990;2023-02-26T12:53:42;102172.16;;;13.92;25.96
78685;BME280;68002;52.310;6.990;2023-02-26T12:58:57;102177.03;;;13.98;26.82
78685;BME280;68002;52.310;6.990;2023-02-26T13:01:34;102173.50;;;14.30;25.70
78685;BME280;68002;52.310;6.990;2023-02-26T13:06:47;102167.81;;;14.01;25.42
78685;BME280;68002;52.310;6.990;2023-02-26T13:09:23;102163.66;;;14.08;25.81
78685;BME280;68002;52.310;6.990;2023-02-26T13:12:04;102178.53;;;13.91;24.89
78685;BME280;68002;52.310;6.990;2023-02-26T13:17:49;102169.59;;;14.23;24.51
78685;BME280;68002;52.310;6.990;2023-02-26T13:20:22;102175.19;;;14.31;24.04
78685;BME280;68002;52.310;6.990;2023-02-26T13:22:52;102163.59;;;14.30;23.93
78685;BME280;68002;52.310;6.990;2023-02-26T13:28:00;102167.06;;;13.78;24.46
78685;BME280;68002;52.310;6.990;2023-02-26T13:30:35;102163.84;;;13.84;23.99
78685;BME280;68002;52.310;6.990;2023-02-26T13:33:02;102165.28;;;13.68;24.32
78685;BME280;68002;52.310;6.990;2023-02-26T13:35:36;102165.06;;;13.91;25.22
78685;BME280;68002;52.310;6.990;2023-02-26T13:38:17;102162.50;;;13.90;23.93
78685;BME280;68002;52.310;6.990;2023-02-26T13:41:14;102161.59;;;14.32;24.35
78685;BME280;68002;52.310;6.990;2023-02-26T13:46:35;102159.91;;;14.31;24.36
78685;BME280;68002;52.310;6.990;2023-02-26T13:49:30;102153.06;;;13.95;25.00
78685;BME280;68002;52.310;6.990;2023-02-26T13:51:58;102160.72;;;13.68;24.54
78685;BME280;68002;52.310;6.990;2023-02-26T14:04:56;102163.66;;;13.23;25.96
78685;BME280;68002;52.310;6.990;2023-02-26T14:07:51;102156.91;;;12.84;25.79
78685;BME280;68002;52.310;6.990;2023-02-26T14:10:35;102157.78;;;13.29;26.07
78685;BME280;68002;52.310;6.990;2023-02-26T14:18:34;102151.13;;;13.55;23.93
78685;BME280;68002;52.310;6.990;2023-02-26T14:23:55;102147.06;;;14.24;23.98
78685;BME280;68002;52.310;6.990;2023-02-26T14:26:21;102156.81;;;14.04;24.39
78685;BME280;68002;52.310;6.990;2023-02-26T14:31:54;102151.63;;;14.44;23.67
78685;BME280;68002;52.310;6.990;2023-02-26T14:34:24;102156.13;;;13.59;25.40
78685;BME280;68002;52.310;6.990;2023-02-26T14:36:58;102151.00;;;12.46;25.89
78685;BME280;68002;52.310;6.990;2023-02-26T14:39:34;102159.16;;;11.98;28.39
78685;BME280;68002;52.310;6.990;2023-02-26T14:42:07;102161.41;;;12.50;26.74
78685;BME280;68002;52.310;6.990;2023-02-26T14:44:39;102151.78;;;12.92;27.13
78685;BME280;68002;52.310;6.990;2023-02-26T14:47:07;102153.47;;;12.03;28.17
78685;BME280;68002;52.310;6.990;2023-02-26T14:49:36;102157.41;;;12.78;27.48
78685;BME280;68002;52.310;6.990;2023-02-26T14:54:49;102152.13;;;12.76;27.04
78685;BME280;68002;52.310;6.990;2023-02-26T15:00:25;102155.44;;;12.69;28.23
78685;BME280;68002;52.310;6.990;2023-02-26T15:11:22;102155.16;;;12.39;28.83
78685;BME280;68002;52.310;6.990;2023-02-26T15:14:22;102166.56;;;12.19;28.27
78685;BME280;68002;52.310;6.990;2023-02-26T15:25:24;102165.34;;;11.15;29.78